sensor_id;sensor_type;location;lat;lon;timestamp;pressure;altitude;pressure_sealevel;temperature;humidity
43701;BME280;58809;47.984;7.964;2022-07-06T00:01:08;97833.63;;;15.90;nan
43701;BME280;58809;47.984;7.964;2022-07-06T00:04:10;97839.75;;;15.84;nan
43701;BME280;58809;47.984;7.964;2022-07-06T00:07:12;97842.22;;;15.86;nan
43701;BME280;58809;47.984;7.964;2022-07-06T00:10:15;97837.06;;;15.77;nan
43701;BME280;58809;47.984;7.964;2022-07-06T00:13:16;97841.28;;;15.65;nan
43701;BME280;58809;47.984;7.964;2022-07-06T00:16:19;97839.84;;;15.63;nan
43701;BME280;58809;47.984;7.964;2022-07-06T00:19:20;97839.56;;;15.51;nan
43701;BME280;58809;47.984;7.964;2022-07-06T00:22:22;97843.47;;;15.48;nan
43701;BME280;58809;47.984;7.964;2022-07-06T00:25:23;97842.66;;;15.54;nan
43701;BME280;58809;47.984;7.964;2022-07-06T00:28:25;97839.13;;;15.40;nan
43701;BME280;58809;47.984;7.964;2022-07-06T00:31:27;97840.34;;;15.45;nan
43701;BME280;58809;47.984;7.964;2022-07-06T00:34:28;97845.94;;;15.56;nan
43701;BME280;58809;47.984;7.964;2022-07-06T00:37:30;97841.66;;;15.62;nan
43701;BME280;58809;47.984;7.964;2022-07-06T00:40:31;97840.63;;;15.56;nan
43701;BME280;58809;47.984;7.964;2022-07-06T00:43:47;97828.03;;;15.44;nan
43701;BME280;58809;47.984;7.964;2022-07-06T00:46:48;97824.38;;;15.16;nan
43701;BME280;58809;47.984;7.964;2022-07-06T00:49:50;97831.31;;;15.11;nan
43701;BME280;58809;47.984;7.964;2022-07-06T00:53:12;97821.63;;;15.03;nan
43701;BME280;58809;47.984;7.964;2022-07-06T00:56:14;97827.94;;;14.95;nan
43701;BME280;58809;47.984;7.964;2022-07-06T00:59:15;97828.31;;;14.92;nan
43701;BME280;58809;47.984;7.964;2022-07-06T01:02:17;97825.66;;;14.92;nan
43701;BME280;58809;47.984;7.964;2022-07-06T01:05:20;97828.72;;;14.89;nan
43701;BME280;58809;47.984;7.964;2022-07-06T01:08:22;97829.16;;;14.93;nan
43701;BME280;58809;47.984;7.964;2022-07-06T01:11:25;97830.72;;;14.87;nan
43701;BME280;58809;47.984;7.964;2022-07-06T01:14:27;97831.13;;;14.84;nan
43701;BME280;58809;47.984;7.964;2022-07-06T01:17:29;97823.50;;;14.81;nan
43701;BME280;58809;47.984;7.964;2022-07-06T01:20:32;97825.34;;;14.80;nan
43701;BME280;58809;47.984;7.964;2022-07-06T01:23:38;97818.09;;;14.68;nan
43701;BME280;58809;47.984;7.964;2022-07-06T01:26:40;97814.91;;;14.57;nan
43701;BME280;58809;47.984;7.964;2022-07-06T01:29:41;97813.94;;;14.65;nan
43701;BME280;58809;47.984;7.964;2022-07-06T01:32:43;97809.28;;;14.67;nan
43701;BME280;58809;47.984;7.964;2022-07-06T01:35:46;97802.78;;;14.55;nan
43701;BME280;58809;47.984;7.964;2022-07-06T01:38:52;97810.28;;;14.66;nan
43701;BME280;58809;47.984;7.964;2022-07-06T01:41:54;97808.59;;;14.58;nan
43701;BME280;58809;47.984;7.964;2022-07-06T01:44:55;97802.53;;;14.50;nan
43701;BME280;58809;47.984;7.964;2022-07-06T01:47:58;97802.06;;;14.24;nan
43701;BME280;58809;47.984;7.964;2022-07-06T01:51:00;97792.47;;;14.23;nan
43701;BME280;58809;47.984;7.964;2022-07-06T01:54:02;97794.28;;;14.23;nan
43701;BME280;58809;47.984;7.964;2022-07-06T01:57:04;97795.81;;;14.11;nan
43701;BME280;58809;47.984;7.964;2022-07-06T02:00:08;97793.69;;;14.06;nan
43701;BME280;58809;47.984;7.964;2022-07-06T02:03:13;97795.09;;;14.02;nan
43701;BME280;58809;47.984;7.964;2022-07-06T02:06:15;97792.25;;;14.03;nan
43701;BME280;58809;47.984;7.964;2022-07-06T02:09:20;97478.28;;;11.94;nan
43701;BME280;58809;47.984;7.964;2022-07-06T02:12:22;97798.47;;;14.11;nan
43701;BME280;58809;47.984;7.964;2022-07-06T02:15:25;97798.84;;;14.08;nan
43701;BME280;58809;47.984;7.964;2022-07-06T02:18:26;97797.56;;;14.03;nan
43701;BME280;58809;47.984;7.964;2022-07-06T02:21:30;97798.47;;;14.11;nan
43701;BME280;58809;47.984;7.964;2022-07-06T02:24:32;97801.81;;;14.19;nan
43701;BME280;58809;47.984;7.964;2022-07-06T02:27:34;97809.81;;;14.19;nan
43701;BME280;58809;47.984;7.964;2022-07-06T02:30:38;97809.47;;;14.08;nan
43701;BME280;58809;47.984;7.964;2022-07-06T02:33:40;97812.00;;;13.94;nan
43701;BME280;58809;47.984;7.964;2022-07-06T02:36:44;97810.19;;;13.80;nan
43701;BME280;58809;47.984;7.964;2022-07-06T02:39:45;97809.19;;;13.81;nan
43701;BME280;58809;47.984;7.964;2022-07-06T02:42:47;97812.88;;;13.80;nan
43701;BME280;58809;47.984;7.964;2022-07-06T02:45:49;97811.59;;;13.76;nan
43701;BME280;58809;47.984;7.964;2022-07-06T02:48:51;97823.94;;;13.83;nan
43701;BME280;58809;47.984;7.964;2022-07-06T02:51:52;97820.84;;;13.80;nan
43701;BME280;58809;47.984;7.964;2022-07-06T02:54:55;97820.59;;;13.60;nan
43701;BME280;58809;47.984;7.964;2022-07-06T02:57:56;97822.16;;;13.54;nan
43701;BME280;58809;47.984;7.964;2022-07-06T03:00:58;97827.28;;;13.56;nan
43701;BME280;58809;47.984;7.964;2022-07-06T03:03:59;97828.66;;;13.66;nan
43701;BME280;58809;47.984;7.964;2022-07-06T03:07:02;97831.06;;;13.61;nan
43701;BME280;58809;47.984;7.964;2022-07-06T03:10:05;97835.97;;;13.64;nan
43701;BME280;58809;47.984;7.964;2022-07-06T03:13:06;97830.88;;;13.63;nan
43701;BME280;58809;47.984;7.964;2022-07-06T03:16:08;97835.56;;;13.61;nan
43701;BME280;58809;47.984;7.964;2022-07-06T03:19:10;97836.63;;;13.52;nan
43701;BME280;58809;47.984;7.964;2022-07-06T03:22:12;97835.75;;;13.44;nan
43701;BME280;58809;47.984;7.964;2022-07-06T03:25:13;97839.94;;;13.39;nan
43701;BME280;58809;47.984;7.964;2022-07-06T03:28:15;97845.34;;;13.31;nan
43701;BME280;58809;47.984;7.964;2022-07-06T03:31:17;97834.97;;;13.21;nan
43701;BME280;58809;47.984;7.964;2022-07-06T03:34:19;97832.03;;;13.16;nan
43701;BME280;58809;47.984;7.964;2022-07-06T03:37:20;97839.69;;;12.96;nan
43701;BME280;58809;47.984;7.964;2022-07-06T03:40:22;97838.88;;;12.95;nan
43701;BME280;58809;47.984;7.964;2022-07-06T03:43:25;97835.84;;;12.98;nan
43701;BME280;58809;47.984;7.964;2022-07-06T03:46:28;97833.34;;;12.97;nan
43701;BME280;58809;47.984;7.964;2022-07-06T03:49:30;97840.88;;;12.93;nan
43701;BME280;58809;47.984;7.964;2022-07-06T03:52:35;97845.13;;;13.02;nan
43701;BME280;58809;47.984;7.964;2022-07-06T03:55:37;97832.31;;;13.06;nan
43701;BME280;58809;47.984;7.964;2022-07-06T03:58:42;97836.22;;;13.10;nan
43701;BME280;58809;47.984;7.964;2022-07-06T04:01:44;97841.00;;;13.15;nan
43701;BME280;58809;47.984;7.964;2022-07-06T04:04:48;97831.09;;;13.23;nan
43701;BME280;58809;47.984;7.964;2022-07-06T04:07:50;97825.50;;;13.18;nan
43701;BME280;58809;47.984;7.964;2022-07-06T04:10:53;97831.09;;;13.23;nan
43701;BME280;58809;47.984;7.964;2022-07-06T04:13:56;97827.91;;;13.28;nan
43701;BME280;58809;47.984;7.964;2022-07-06T04:16:58;97835.69;;;13.29;nan
43701;BME280;58809;47.984;7.964;2022-07-06T04:19:59;97828.28;;;13.25;nan
43701;BME280;58809;47.984;7.964;2022-07-06T04:23:01;97827.91;;;13.28;nan
43701;BME280;58809;47.984;7.964;2022-07-06T04:26:04;97834.72;;;13.31;nan
43701;BME280;58809;47.984;7.964;2022-07-06T04:29:08;97827.84;;;13.36;nan
43701;BME280;58809;47.984;7.964;2022-07-06T04:32:10;97824.66;;;13.41;nan
43701;BME280;58809;47.984;7.964;2022-07-06T04:35:11;97831.53;;;13.50;nan
43701;BME280;58809;47.984;7.964;2022-07-06T04:38:14;97840.13;;;13.67;nan
43701;BME280;58809;47.984;7.964;2022-07-06T04:41:17;97827.22;;;14.00;nan
43701;BME280;58809;47.984;7.964;2022-07-06T04:44:18;97828.56;;;14.11;nan
43701;BME280;58809;47.984;7.964;2022-07-06T04:47:20;97838.38;;;14.11;nan
43701;BME280;58809;47.984;7.964;2022-07-06T04:50:22;97835.88;;;14.24;nan
43701;BME280;58809;47.984;7.964;2022-07-06T04:53:26;97844.38;;;14.34;nan
43701;BME280;58809;47.984;7.964;2022-07-06T04:56:28;97842.78;;;14.40;nan
43701;BME280;58809;47.984;7.964;2022-07-06T04:59:31;97841.25;;;14.52;nan
43701;BME280;58809;47.984;7.964;2022-07-06T05:02:34;97841.63;;;14.64;nan
43701;BME280;58809;47.984;7.964;2022-07-06T05:05:36;97844.44;;;14.84;nan
43701;BME280;58809;47.984;7.964;2022-07-06T05:08:39;97839.16;;;14.91;nan
43701;BME280;58809;47.984;7.964;2022-07-06T05:11:40;97845.53;;;14.90;nan
43701;BME280;58809;47.984;7.964;2022-07-06T05:14:43;97850.97;;;14.81;nan
43701;BME280;58809;47.984;7.964;2022-07-06T05:17:45;97851.53;;;14.98;nan
43701;BME280;58809;47.984;7.964;2022-07-06T05:20:48;97847.38;;;15.17;nan
43701;BME280;58809;47.984;7.964;2022-07-06T05:23:50;97846.97;;;15.20;nan
43701;BME280;58809;47.984;7.964;2022-07-06T05:26:52;97845.94;;;15.21;nan
43701;BME280;58809;47.984;7.964;2022-07-06T05:29:54;97844.69;;;15.17;nan
43701;BME280;58809;47.984;7.964;2022-07-06T05:32:55;97846.56;;;15.24;nan
43701;BME280;58809;47.984;7.964;2022-07-06T05:35:57;97850.72;;;15.33;nan
43701;BME280;58809;47.984;7.964;2022-07-06T05:39:02;97851.28;;;15.56;nan
43701;BME280;58809;47.984;7.964;2022-07-06T05:42:05;97843.53;;;15.62;nan
43701;BME280;58809;47.984;7.964;2022-07-06T05:45:09;97845.69;;;15.80;nan
43701;BME280;58809;47.984;7.964;2022-07-06T05:48:11;97854.78;;;15.98;nan
43701;BME280;58809;47.984;7.964;2022-07-06T05:51:32;97850.31;;;16.06;nan
43701;BME280;58809;47.984;7.964;2022-07-06T05:54:34;97860.41;;;16.10;nan
43701;BME280;58809;47.984;7.964;2022-07-06T05:57:35;97855.69;;;16.19;nan
43701;BME280;58809;47.984;7.964;2022-07-06T06:00:37;97854.47;;;16.22;nan
43701;BME280;58809;47.984;7.964;2022-07-06T06:03:46;97852.22;;;16.25;nan
43701;BME280;58809;47.984;7.964;2022-07-06T06:06:48;97864.16;;;16.29;nan
43701;BME280;58809;47.984;7.964;2022-07-06T06:09:50;97863.13;;;16.37;nan
43701;BME280;58809;47.984;7.964;2022-07-06T06:12:52;97866.28;;;16.54;nan
43701;BME280;58809;47.984;7.964;2022-07-06T06:15:54;97873.88;;;16.64;nan
43701;BME280;58809;47.984;7.964;2022-07-06T06:18:55;97870.00;;;16.80;nan
43701;BME280;58809;47.984;7.964;2022-07-06T06:21:57;97875.97;;;16.82;nan
43701;BME280;58809;47.984;7.964;2022-07-06T06:24:58;97864.06;;;16.84;nan
43701;BME280;58809;47.984;7.964;2022-07-06T06:28:01;97865.69;;;16.92;nan
43701;BME280;58809;47.984;7.964;2022-07-06T06:31:03;97867.97;;;17.02;nan
43701;BME280;58809;47.984;7.964;2022-07-06T06:34:05;97874.16;;;17.09;nan
43701;BME280;58809;47.984;7.964;2022-07-06T06:37:07;97869.81;;;17.28;nan
43701;BME280;58809;47.984;7.964;2022-07-06T06:40:09;97870.81;;;17.40;nan
43701;BME280;58809;47.984;7.964;2022-07-06T06:43:11;97867.09;;;17.48;nan
43701;BME280;58809;47.984;7.964;2022-07-06T06:46:24;97855.75;;;17.52;nan
43701;BME280;58809;47.984;7.964;2022-07-06T06:49:26;97864.38;;;17.68;nan
43701;BME280;58809;47.984;7.964;2022-07-06T06:52:27;97866.81;;;17.83;nan
43701;BME280;58809;47.984;7.964;2022-07-06T06:55:44;97857.53;;;17.99;nan
43701;BME280;58809;47.984;7.964;2022-07-06T06:58:46;97858.06;;;18.07;nan
43701;BME280;58809;47.984;7.964;2022-07-06T07:02:07;97861.59;;;18.08;nan
43701;BME280;58809;47.984;7.964;2022-07-06T07:05:09;97864.22;;;18.15;nan
43701;BME280;58809;47.984;7.964;2022-07-06T07:08:11;97865.03;;;18.22;nan
43701;BME280;58809;47.984;7.964;2022-07-06T07:11:12;97864.56;;;18.32;nan
43701;BME280;58809;47.984;7.964;2022-07-06T07:14:14;97852.59;;;18.34;nan
43701;BME280;58809;47.984;7.964;2022-07-06T07:17:16;97857.06;;;18.47;nan
43701;BME280;58809;47.984;7.964;2022-07-06T07:20:17;97858.44;;;18.56;nan
43701;BME280;58809;47.984;7.964;2022-07-06T07:23:19;97852.81;;;18.64;nan
43701;BME280;58809;47.984;7.964;2022-07-06T07:26:21;97860.19;;;18.76;nan
43701;BME280;58809;47.984;7.964;2022-07-06T07:29:22;97862.19;;;18.87;nan
43701;BME280;58809;47.984;7.964;2022-07-06T07:32:24;97844.81;;;18.90;nan
43701;BME280;58809;47.984;7.964;2022-07-06T07:35:26;97851.25;;;18.89;nan
43701;BME280;58809;47.984;7.964;2022-07-06T07:38:28;97850.13;;;18.96;nan
43701;BME280;58809;47.984;7.964;2022-07-06T07:41:30;97859.34;;;19.07;nan
43701;BME280;58809;47.984;7.964;2022-07-06T07:44:32;97856.97;;;19.17;nan
43701;BME280;58809;47.984;7.964;2022-07-06T07:47:34;97862.53;;;19.16;nan
43701;BME280;58809;47.984;7.964;2022-07-06T07:50:35;97866.44;;;19.20;nan
43701;BME280;58809;47.984;7.964;2022-07-06T07:53:37;97868.84;;;19.28;nan
43701;BME280;58809;47.984;7.964;2022-07-06T07:56:38;97868.63;;;19.30;nan
43701;BME280;58809;47.984;7.964;2022-07-06T07:59:43;97866.66;;;19.43;nan
43701;BME280;58809;47.984;7.964;2022-07-06T08:02:45;97875.88;;;19.48;nan
43701;BME280;58809;47.984;7.964;2022-07-06T08:05:46;97862.84;;;19.51;nan
43701;BME280;58809;47.984;7.964;2022-07-06T08:08:49;97860.97;;;19.52;nan
43701;BME280;58809;47.984;7.964;2022-07-06T08:11:51;97862.69;;;19.65;nan
43701;BME280;58809;47.984;7.964;2022-07-06T08:14:53;97869.63;;;19.72;nan
43701;BME280;58809;47.984;7.964;2022-07-06T08:17:54;97862.19;;;19.74;nan
43701;BME280;58809;47.984;7.964;2022-07-06T08:20:56;97861.47;;;19.86;nan
43701;BME280;58809;47.984;7.964;2022-07-06T08:24:18;97875.63;;;20.11;nan
43701;BME280;58809;47.984;7.964;2022-07-06T08:27:19;97865.91;;;20.10;nan
43701;BME280;58809;47.984;7.964;2022-07-06T08:30:21;97875.63;;;20.11;nan
43701;BME280;58809;47.984;7.964;2022-07-06T08:33:23;97878.75;;;20.08;nan
43701;BME280;58809;47.984;7.964;2022-07-06T08:36:25;97873.97;;;20.10;nan
43701;BME280;58809;47.984;7.964;2022-07-06T08:39:27;97875.91;;;20.22;nan
43701;BME280;58809;47.984;7.964;2022-07-06T08:42:31;97876.03;;;20.27;nan
43701;BME280;58809;47.984;7.964;2022-07-06T08:45:34;97872.94;;;20.42;nan
43701;BME280;58809;47.984;7.964;2022-07-06T08:48:37;97878.81;;;20.50;nan
43701;BME280;58809;47.984;7.964;2022-07-06T08:51:40;97880.91;;;20.67;nan
43701;BME280;58809;47.984;7.964;2022-07-06T08:54:43;97871.66;;;20.63;nan
43701;BME280;58809;47.984;7.964;2022-07-06T08:57:46;97879.06;;;20.79;nan
43701;BME280;58809;47.984;7.964;2022-07-06T09:00:48;97870.56;;;20.94;nan
43701;BME280;58809;47.984;7.964;2022-07-06T09:03:50;97880.63;;;20.99;nan
43701;BME280;58809;47.984;7.964;2022-07-06T09:06:53;97881.47;;;21.11;nan
43701;BME280;58809;47.984;7.964;2022-07-06T09:09:56;97877.81;;;21.17;nan
43701;BME280;58809;47.984;7.964;2022-07-06T09:13:03;97882.63;;;21.15;nan
43701;BME280;58809;47.984;7.964;2022-07-06T09:16:09;97882.50;;;21.10;nan
43701;BME280;58809;47.984;7.964;2022-07-06T09:19:33;97885.44;;;21.32;nan
43701;BME280;58809;47.984;7.964;2022-07-06T09:22:35;97892.38;;;21.40;nan
43701;BME280;58809;47.984;7.964;2022-07-06T09:25:37;97896.91;;;21.39;nan
43701;BME280;58809;47.984;7.964;2022-07-06T09:28:42;97891.59;;;21.51;nan
43701;BME280;58809;47.984;7.964;2022-07-06T09:31:56;97900.81;;;21.67;nan
43701;BME280;58809;47.984;7.964;2022-07-06T09:34:58;97902.34;;;21.75;nan
43701;BME280;58809;47.984;7.964;2022-07-06T09:38:03;97906.44;;;21.77;nan
43701;BME280;58809;47.984;7.964;2022-07-06T09:41:05;97909.69;;;21.79;nan
43701;BME280;58809;47.984;7.964;2022-07-06T09:44:09;97909.34;;;21.76;nan
43701;BME280;58809;47.984;7.964;2022-07-06T09:47:11;97910.75;;;21.90;nan
43701;BME280;58809;47.984;7.964;2022-07-06T09:50:15;97912.16;;;21.81;nan
43701;BME280;58809;47.984;7.964;2022-07-06T09:53:18;97921.41;;;21.97;nan
43701;BME280;58809;47.984;7.964;2022-07-06T09:56:21;97914.69;;;22.11;nan
43701;BME280;58809;47.984;7.964;2022-07-06T09:59:28;97904.03;;;22.04;nan
43701;BME280;58809;47.984;7.964;2022-07-06T10:02:30;97908.22;;;22.12;nan
43701;BME280;58809;47.984;7.964;2022-07-06T10:05:32;97909.63;;;22.26;nan
43701;BME280;58809;47.984;7.964;2022-07-06T10:08:36;97909.13;;;22.41;nan
43701;BME280;58809;47.984;7.964;2022-07-06T10:11:39;97916.16;;;22.42;nan
43701;BME280;58809;47.984;7.964;2022-07-06T10:14:41;97912.97;;;22.45;nan
43701;BME280;58809;47.984;7.964;2022-07-06T10:17:49;97902.72;;;22.59;nan
43701;BME280;58809;47.984;7.964;2022-07-06T10:20:51;97901.34;;;22.57;nan
43701;BME280;58809;47.984;7.964;2022-07-06T10:23:53;97885.63;;;22.54;nan
43701;BME280;58809;47.984;7.964;2022-07-06T10:26:55;97894.28;;;22.56;nan
43701;BME280;58809;47.984;7.964;2022-07-06T10:29:57;97899.81;;;22.78;nan
43701;BME280;58809;47.984;7.964;2022-07-06T10:32:59;97887.06;;;22.73;nan
43701;BME280;58809;47.984;7.964;2022-07-06T10:36:01;97893.28;;;22.74;nan
43701;BME280;58809;47.984;7.964;2022-07-06T10:39:03;97895.88;;;22.85;nan
43701;BME280;58809;47.984;7.964;2022-07-06T10:42:42;97896.41;;;22.82;nan
43701;BME280;58809;47.984;7.964;2022-07-06T10:48:48;97894.44;;;22.95;nan
43701;BME280;58809;47.984;7.964;2022-07-06T10:51:51;60547.97;;;-144.80;100.00
43701;BME280;58809;47.984;7.964;2022-07-06T10:54:56;60547.97;;;-144.80;100.00
43701;BME280;58809;47.984;7.964;2022-07-06T10:57:58;60547.97;;;-144.80;100.00
43701;BME280;58809;47.984;7.964;2022-07-06T11:00:59;60547.97;;;-144.80;100.00
43701;BME280;58809;47.984;7.964;2022-07-06T11:07:09;60547.97;;;-144.80;100.00
43701;BME280;58809;47.984;7.964;2022-07-06T11:10:11;60547.97;;;-144.80;100.00
43701;BME280;58809;47.984;7.964;2022-07-06T11:16:36;60547.97;;;-144.80;100.00
43701;BME280;58809;47.984;7.964;2022-07-06T11:19:48;60547.97;;;191.67;100.00
43701;BME280;58809;47.984;7.964;2022-07-06T11:22:50;60547.97;;;191.67;100.00
43701;BME280;58809;47.984;7.964;2022-07-06T11:25:52;60547.97;;;-144.80;100.00
43701;BME280;58809;47.984;7.964;2022-07-06T11:28:53;60547.97;;;-144.80;100.00
43701;BME280;58809;47.984;7.964;2022-07-06T11:31:58;60547.97;;;-144.80;100.00
43701;BME280;58809;47.984;7.964;2022-07-06T11:35:02;60547.97;;;-144.80;100.00
43701;BME280;58809;47.984;7.964;2022-07-06T11:38:25;60547.97;;;-144.80;100.00
43701;BME280;58809;47.984;7.964;2022-07-06T11:41:27;60547.97;;;-144.80;100.00
43701;BME280;58809;47.984;7.964;2022-07-06T11:44:28;60547.97;;;-144.80;100.00
43701;BME280;58809;47.984;7.964;2022-07-06T11:47:30;60547.97;;;-144.80;100.00
43701;BME280;58809;47.984;7.964;2022-07-06T11:50:32;60547.97;;;-144.80;100.00
43701;BME280;58809;47.984;7.964;2022-07-06T11:53:34;60547.97;;;-144.80;100.00
43701;BME280;58809;47.984;7.964;2022-07-06T11:56:36;60547.97;;;-144.80;100.00
43701;BME280;58809;47.984;7.964;2022-07-06T11:59:39;60547.97;;;-144.80;100.00
43701;BME280;58809;47.984;7.964;2022-07-06T12:02:58;60547.97;;;-144.80;100.00
43701;BME280;58809;47.984;7.964;2022-07-06T12:06:19;60547.97;;;-144.80;100.00
43701;BME280;58809;47.984;7.964;2022-07-06T12:09:21;60547.97;;;-144.80;100.00
43701;BME280;58809;47.984;7.964;2022-07-06T12:12:23;60547.97;;;-144.80;100.00
43701;BME280;58809;47.984;7.964;2022-07-06T12:15:28;60547.97;;;-144.80;100.00
43701;BME280;58809;47.984;7.964;2022-07-06T12:18:37;60547.97;;;-144.80;100.00
43701;BME280;58809;47.984;7.964;2022-07-06T12:21:47;60547.97;;;-144.80;100.00
43701;BME280;58809;47.984;7.964;2022-07-06T12:24:49;60547.97;;;-144.80;100.00
43701;BME280;58809;47.984;7.964;2022-07-06T12:27:51;60547.97;;;-144.80;100.00
43701;BME280;58809;47.984;7.964;2022-07-06T12:30:52;60547.97;;;-144.80;100.00
43701;BME280;58809;47.984;7.964;2022-07-06T12:33:57;60547.97;;;-144.80;100.00
43701;BME280;58809;47.984;7.964;2022-07-06T12:36:59;60547.97;;;-144.80;100.00
43701;BME280;58809;47.984;7.964;2022-07-06T12:40:12;60547.97;;;-144.80;100.00
43701;BME280;58809;47.984;7.964;2022-07-06T12:43:34;60547.97;;;-144.80;100.00
43701;BME280;58809;47.984;7.964;2022-07-06T12:46:41;60547.97;;;-144.80;100.00
43701;BME280;58809;47.984;7.964;2022-07-06T12:49:43;60547.97;;;-144.80;100.00
43701;BME280;58809;47.984;7.964;2022-07-06T12:52:44;60547.97;;;-144.80;100.00
43701;BME280;58809;47.984;7.964;2022-07-06T12:55:46;60547.97;;;-144.80;100.00
43701;BME280;58809;47.984;7.964;2022-07-06T13:01:59;60547.97;;;-144.80;100.00
43701;BME280;58809;47.984;7.964;2022-07-06T13:05:04;60547.97;;;-144.80;100.00
43701;BME280;58809;47.984;7.964;2022-07-06T13:08:07;60547.97;;;-144.80;100.00
43701;BME280;58809;47.984;7.964;2022-07-06T13:11:10;60547.97;;;-144.80;100.00
43701;BME280;58809;47.984;7.964;2022-07-06T13:14:12;60547.97;;;-144.80;100.00
43701;BME280;58809;47.984;7.964;2022-07-06T13:17:14;60547.97;;;-144.80;100.00
43701;BME280;58809;47.984;7.964;2022-07-06T13:20:16;60547.97;;;-144.80;100.00
43701;BME280;58809;47.984;7.964;2022-07-06T13:23:18;60547.97;;;-144.80;100.00
43701;BME280;58809;47.984;7.964;2022-07-06T13:26:20;60547.97;;;-144.80;100.00
43701;BME280;58809;47.984;7.964;2022-07-06T13:29:22;60547.97;;;-144.80;100.00
43701;BME280;58809;47.984;7.964;2022-07-06T13:32:24;60547.97;;;-144.80;100.00
43701;BME280;58809;47.984;7.964;2022-07-06T13:35:26;60547.97;;;-144.80;100.00
43701;BME280;58809;47.984;7.964;2022-07-06T13:38:27;60547.97;;;-144.80;100.00
43701;BME280;58809;47.984;7.964;2022-07-06T13:41:29;60547.97;;;-144.80;100.00
43701;BME280;58809;47.984;7.964;2022-07-06T13:44:31;60547.97;;;-144.80;100.00
43701;BME280;58809;47.984;7.964;2022-07-06T13:47:32;60547.97;;;-144.80;100.00
43701;BME280;58809;47.984;7.964;2022-07-06T13:50:34;60547.97;;;-144.80;100.00
43701;BME280;58809;47.984;7.964;2022-07-06T13:53:35;60547.97;;;-144.80;100.00
43701;BME280;58809;47.984;7.964;2022-07-06T13:56:39;60547.97;;;-144.80;100.00
43701;BME280;58809;47.984;7.964;2022-07-06T13:59:43;60547.97;;;-144.80;100.00
43701;BME280;58809;47.984;7.964;2022-07-06T14:02:45;60547.97;;;-144.80;100.00
43701;BME280;58809;47.984;7.964;2022-07-06T14:05:47;60547.97;;;-144.80;100.00
43701;BME280;58809;47.984;7.964;2022-07-06T14:08:49;60547.97;;;-144.80;100.00
43701;BME280;58809;47.984;7.964;2022-07-06T14:11:50;60547.97;;;-144.80;100.00
43701;BME280;58809;47.984;7.964;2022-07-06T14:14:52;60547.97;;;-144.80;100.00
43701;BME280;58809;47.984;7.964;2022-07-06T14:17:53;60547.97;;;-144.80;100.00
43701;BME280;58809;47.984;7.964;2022-07-06T14:20:55;60547.97;;;-144.80;100.00
43701;BME280;58809;47.984;7.964;2022-07-06T14:23:57;60547.97;;;-144.80;100.00
43701;BME280;58809;47.984;7.964;2022-07-06T14:26:58;60547.97;;;-144.80;100.00
43701;BME280;58809;47.984;7.964;2022-07-06T14:30:00;60547.97;;;-144.80;100.00
43701;BME280;58809;47.984;7.964;2022-07-06T14:33:06;60547.97;;;-144.80;100.00
43701;BME280;58809;47.984;7.964;2022-07-06T14:36:11;60547.97;;;-144.80;100.00
43701;BME280;58809;47.984;7.964;2022-07-06T14:39:12;60547.97;;;-144.80;100.00
43701;BME280;58809;47.984;7.964;2022-07-06T14:42:15;60547.97;;;-144.80;100.00
43701;BME280;58809;47.984;7.964;2022-07-06T14:45:16;60547.97;;;-144.80;100.00
43701;BME280;58809;47.984;7.964;2022-07-06T14:48:18;60547.97;;;-144.80;100.00
43701;BME280;58809;47.984;7.964;2022-07-06T14:51:20;60547.97;;;-144.80;100.00
43701;BME280;58809;47.984;7.964;2022-07-06T14:54:21;60547.97;;;-144.80;100.00
43701;BME280;58809;47.984;7.964;2022-07-06T14:57:23;60547.97;;;-144.80;100.00
43701;BME280;58809;47.984;7.964;2022-07-06T15:00:25;60547.97;;;-144.80;100.00
43701;BME280;58809;47.984;7.964;2022-07-06T15:03:27;60547.97;;;-144.80;100.00
43701;BME280;58809;47.984;7.964;2022-07-06T15:06:29;60547.97;;;-144.80;100.00
43701;BME280;58809;47.984;7.964;2022-07-06T15:09:51;60547.97;;;-144.80;100.00
43701;BME280;58809;47.984;7.964;2022-07-06T15:12:53;60547.97;;;-144.80;100.00
43701;BME280;58809;47.984;7.964;2022-07-06T15:15:54;60547.97;;;-144.80;100.00
43701;BME280;58809;47.984;7.964;2022-07-06T15:18:59;60547.97;;;-144.80;100.00
43701;BME280;58809;47.984;7.964;2022-07-06T15:22:00;60547.97;;;-144.80;100.00
43701;BME280;58809;47.984;7.964;2022-07-06T15:25:02;60547.97;;;-144.80;100.00
43701;BME280;58809;47.984;7.964;2022-07-06T15:28:04;60547.97;;;-144.80;100.00
43701;BME280;58809;47.984;7.964;2022-07-06T15:31:06;60547.97;;;-144.80;100.00
43701;BME280;58809;47.984;7.964;2022-07-06T15:34:08;60547.97;;;-144.80;100.00
43701;BME280;58809;47.984;7.964;2022-07-06T15:37:09;60547.97;;;-144.80;100.00
43701;BME280;58809;47.984;7.964;2022-07-06T15:40:11;60547.97;;;-144.80;100.00
43701;BME280;58809;47.984;7.964;2022-07-06T15:43:14;60547.97;;;-144.80;100.00
43701;BME280;58809;47.984;7.964;2022-07-06T15:46:16;60547.97;;;-144.80;100.00
43701;BME280;58809;47.984;7.964;2022-07-06T15:49:19;60547.97;;;-144.80;100.00
43701;BME280;58809;47.984;7.964;2022-07-06T15:52:20;60547.97;;;-144.80;100.00
43701;BME280;58809;47.984;7.964;2022-07-06T15:55:22;60547.97;;;-144.80;100.00
43701;BME280;58809;47.984;7.964;2022-07-06T15:58:24;60547.97;;;-144.80;100.00
43701;BME280;58809;47.984;7.964;2022-07-06T16:01:26;60547.97;;;-144.80;100.00
43701;BME280;58809;47.984;7.964;2022-07-06T16:04:28;60547.97;;;-144.80;100.00
43701;BME280;58809;47.984;7.964;2022-07-06T16:07:30;60547.97;;;-144.80;100.00
43701;BME280;58809;47.984;7.964;2022-07-06T16:10:52;60547.97;;;-144.80;100.00
43701;BME280;58809;47.984;7.964;2022-07-06T16:13:53;60547.97;;;-144.80;100.00
43701;BME280;58809;47.984;7.964;2022-07-06T16:16:57;60547.97;;;-144.80;100.00
43701;BME280;58809;47.984;7.964;2022-07-06T16:20:01;60547.97;;;-144.80;100.00
43701;BME280;58809;47.984;7.964;2022-07-06T16:23:03;60547.97;;;-144.80;100.00
43701;BME280;58809;47.984;7.964;2022-07-06T16:26:05;60547.97;;;-144.80;100.00